sensor_id;sensor_type;location;lat;lon;timestamp;P1;durP1;ratioP1;P2;durP2;ratioP2
4317;SDS011;2172;53.576;9.934;2024-03-02T00:00:51;27.23;;;19.40;;
4317;SDS011;2172;53.576;9.934;2024-03-02T00:03:19;28.73;;;19.70;;
4317;SDS011;2172;53.576;9.934;2024-03-02T00:05:50;28.60;;;20.73;;
4317;SDS011;2172;53.576;9.934;2024-03-02T00:08:22;28.80;;;20.97;;
4317;SDS011;2172;53.576;9.934;2024-03-02T00:10:51;33.27;;;19.70;;
4317;SDS011;2172;53.576;9.934;2024-03-02T00:13:23;29.30;;;21.70;;
4317;SDS011;2172;53.576;9.934;2024-03-02T00:15:51;31.67;;;20.80;;
4317;SDS011;2172;53.576;9.934;2024-03-02T00:18:21;27.40;;;18.73;;
4317;SDS011;2172;53.576;9.934;2024-03-02T00:20:52;26.37;;;19.00;;
4317;SDS011;2172;53.576;9.934;2024-03-02T00:23:23;27.20;;;19.13;;
4317;SDS011;2172;53.576;9.934;2024-03-02T00:25:52;27.70;;;19.70;;
4317;SDS011;2172;53.576;9.934;2024-03-02T00:28:21;27.20;;;19.30;;
4317;SDS011;2172;53.576;9.934;2024-03-02T00:30:56;29.87;;;21.00;;
4317;SDS011;2172;53.576;9.934;2024-03-02T00:33:29;26.37;;;19.20;;
4317;SDS011;2172;53.576;9.934;2024-03-02T00:35:58;28.33;;;19.30;;
4317;SDS011;2172;53.576;9.934;2024-03-02T00:38:27;28.00;;;21.00;;
4317;SDS011;2172;53.576;9.934;2024-03-02T00:40:56;29.90;;;20.23;;
4317;SDS011;2172;53.576;9.934;2024-03-02T00:46:11;31.17;;;21.13;;
4317;SDS011;2172;53.576;9.934;2024-03-02T00:48:39;32.17;;;21.13;;
4317;SDS011;2172;53.576;9.934;2024-03-02T00:51:13;30.97;;;21.20;;
4317;SDS011;2172;53.576;9.934;2024-03-02T00:53:42;27.70;;;20.67;;
4317;SDS011;2172;53.576;9.934;2024-03-02T00:56:10;28.10;;;20.90;;
4317;SDS011;2172;53.576;9.934;2024-03-02T00:58:38;31.47;;;21.50;;
4317;SDS011;2172;53.576;9.934;2024-03-02T01:01:06;36.57;;;23.30;;
4317;SDS011;2172;53.576;9.934;2024-03-02T01:03:34;34.80;;;21.20;;
4317;SDS011;2172;53.576;9.934;2024-03-02T01:06:04;35.97;;;24.10;;
4317;SDS011;2172;53.576;9.934;2024-03-02T01:08:32;32.30;;;23.87;;
4317;SDS011;2172;53.576;9.934;2024-03-02T01:11:02;35.20;;;24.07;;
4317;SDS011;2172;53.576;9.934;2024-03-02T01:13:30;36.83;;;23.90;;
4317;SDS011;2172;53.576;9.934;2024-03-02T01:15:58;35.37;;;22.30;;
4317;SDS011;2172;53.576;9.934;2024-03-02T01:18:25;38.67;;;24.93;;
4317;SDS011;2172;53.576;9.934;2024-03-02T01:20:53;37.83;;;24.90;;
4317;SDS011;2172;53.576;9.934;2024-03-02T01:23:21;37.47;;;24.53;;
4317;SDS011;2172;53.576;9.934;2024-03-02T01:25:49;40.53;;;26.47;;
4317;SDS011;2172;53.576;9.934;2024-03-02T01:28:18;42.17;;;27.57;;
4317;SDS011;2172;53.576;9.934;2024-03-02T01:30:47;47.53;;;28.33;;
4317;SDS011;2172;53.576;9.934;2024-03-02T01:33:15;41.13;;;27.93;;
4317;SDS011;2172;53.576;9.934;2024-03-02T01:35:42;41.40;;;27.57;;
4317;SDS011;2172;53.576;9.934;2024-03-02T01:38:10;44.63;;;27.70;;
4317;SDS011;2172;53.576;9.934;2024-03-02T01:40:38;43.37;;;27.60;;
4317;SDS011;2172;53.576;9.934;2024-03-02T01:43:05;45.30;;;29.00;;
4317;SDS011;2172;53.576;9.934;2024-03-02T01:45:34;44.23;;;28.67;;
4317;SDS011;2172;53.576;9.934;2024-03-02T01:48:03;45.70;;;31.10;;
4317;SDS011;2172;53.576;9.934;2024-03-02T01:50:31;48.03;;;32.23;;
4317;SDS011;2172;53.576;9.934;2024-03-02T01:52:59;45.10;;;29.77;;
4317;SDS011;2172;53.576;9.934;2024-03-02T01:55:28;49.77;;;31.83;;
4317;SDS011;2172;53.576;9.934;2024-03-02T01:57:55;52.87;;;32.60;;
4317;SDS011;2172;53.576;9.934;2024-03-02T02:00:23;48.70;;;31.23;;
4317;SDS011;2172;53.576;9.934;2024-03-02T02:02:53;44.63;;;31.23;;
4317;SDS011;2172;53.576;9.934;2024-03-02T02:05:20;55.30;;;33.10;;
4317;SDS011;2172;53.576;9.934;2024-03-02T02:07:48;51.13;;;32.40;;
4317;SDS011;2172;53.576;9.934;2024-03-02T02:10:15;49.10;;;31.37;;
4317;SDS011;2172;53.576;9.934;2024-03-02T02:12:43;48.00;;;31.73;;
4317;SDS011;2172;53.576;9.934;2024-03-02T02:15:26;47.57;;;31.40;;
4317;SDS011;2172;53.576;9.934;2024-03-02T02:17:56;51.80;;;30.30;;
4317;SDS011;2172;53.576;9.934;2024-03-02T02:20:24;48.47;;;31.70;;
4317;SDS011;2172;53.576;9.934;2024-03-02T02:22:56;45.40;;;30.30;;
4317;SDS011;2172;53.576;9.934;2024-03-02T02:25:23;47.63;;;30.80;;
4317;SDS011;2172;53.576;9.934;2024-03-02T02:27:51;51.70;;;31.27;;
4317;SDS011;2172;53.576;9.934;2024-03-02T02:30:20;50.43;;;31.97;;
4317;SDS011;2172;53.576;9.934;2024-03-02T02:32:48;50.63;;;31.20;;
4317;SDS011;2172;53.576;9.934;2024-03-02T02:35:15;44.70;;;29.97;;
4317;SDS011;2172;53.576;9.934;2024-03-02T02:37:43;45.50;;;30.07;;
4317;SDS011;2172;53.576;9.934;2024-03-02T02:40:13;48.77;;;29.03;;
4317;SDS011;2172;53.576;9.934;2024-03-02T02:42:41;44.87;;;28.97;;
4317;SDS011;2172;53.576;9.934;2024-03-02T02:45:08;46.60;;;30.23;;
4317;SDS011;2172;53.576;9.934;2024-03-02T02:47:36;51.10;;;31.00;;
4317;SDS011;2172;53.576;9.934;2024-03-02T02:50:03;38.93;;;27.20;;
4317;SDS011;2172;53.576;9.934;2024-03-02T02:52:33;44.13;;;28.83;;
4317;SDS011;2172;53.576;9.934;2024-03-02T02:55:05;42.47;;;29.20;;
4317;SDS011;2172;53.576;9.934;2024-03-02T02:57:35;42.93;;;29.30;;
4317;SDS011;2172;53.576;9.934;2024-03-02T03:00:05;46.37;;;27.93;;
4317;SDS011;2172;53.576;9.934;2024-03-02T03:02:36;43.37;;;28.00;;
4317;SDS011;2172;53.576;9.934;2024-03-02T03:05:05;48.63;;;31.90;;
4317;SDS011;2172;53.576;9.934;2024-03-02T03:07:33;43.40;;;29.57;;
4317;SDS011;2172;53.576;9.934;2024-03-02T03:10:02;45.60;;;28.67;;
4317;SDS011;2172;53.576;9.934;2024-03-02T03:12:31;45.27;;;28.80;;
4317;SDS011;2172;53.576;9.934;2024-03-02T03:15:01;46.53;;;30.63;;
4317;SDS011;2172;53.576;9.934;2024-03-02T03:17:29;43.53;;;30.43;;
4317;SDS011;2172;53.576;9.934;2024-03-02T03:19:57;45.83;;;30.30;;
4317;SDS011;2172;53.576;9.934;2024-03-02T03:22:26;48.20;;;32.10;;
4317;SDS011;2172;53.576;9.934;2024-03-02T03:24:53;48.10;;;30.40;;
4317;SDS011;2172;53.576;9.934;2024-03-02T03:27:21;48.57;;;30.07;;
4317;SDS011;2172;53.576;9.934;2024-03-02T03:29:48;43.43;;;28.27;;
4317;SDS011;2172;53.576;9.934;2024-03-02T03:32:17;44.43;;;30.10;;
4317;SDS011;2172;53.576;9.934;2024-03-02T03:34:45;44.13;;;29.30;;
4317;SDS011;2172;53.576;9.934;2024-03-02T03:37:13;40.83;;;28.77;;
4317;SDS011;2172;53.576;9.934;2024-03-02T03:39:40;43.50;;;28.33;;
4317;SDS011;2172;53.576;9.934;2024-03-02T03:42:08;48.03;;;30.67;;
4317;SDS011;2172;53.576;9.934;2024-03-02T03:44:35;38.93;;;27.97;;
4317;SDS011;2172;53.576;9.934;2024-03-02T03:47:04;45.13;;;29.10;;
4317;SDS011;2172;53.576;9.934;2024-03-02T03:49:33;44.20;;;27.37;;
4317;SDS011;2172;53.576;9.934;2024-03-02T03:52:01;45.87;;;29.13;;
4317;SDS011;2172;53.576;9.934;2024-03-02T03:54:29;43.33;;;28.03;;
4317;SDS011;2172;53.576;9.934;2024-03-02T03:56:56;43.00;;;28.77;;
4317;SDS011;2172;53.576;9.934;2024-03-02T03:59:24;49.10;;;29.13;;
4317;SDS011;2172;53.576;9.934;2024-03-02T04:01:51;50.33;;;30.87;;
4317;SDS011;2172;53.576;9.934;2024-03-02T04:04:19;48.07;;;29.30;;
4317;SDS011;2172;53.576;9.934;2024-03-02T04:06:48;46.23;;;30.13;;
4317;SDS011;2172;53.576;9.934;2024-03-02T04:09:16;44.83;;;30.23;;
4317;SDS011;2172;53.576;9.934;2024-03-02T04:11:43;45.50;;;31.20;;
4317;SDS011;2172;53.576;9.934;2024-03-02T04:14:11;41.43;;;28.17;;
4317;SDS011;2172;53.576;9.934;2024-03-02T04:16:38;44.00;;;29.90;;
4317;SDS011;2172;53.576;9.934;2024-03-02T04:19:06;42.07;;;27.53;;
4317;SDS011;2172;53.576;9.934;2024-03-02T04:21:34;43.13;;;30.27;;
4317;SDS011;2172;53.576;9.934;2024-03-02T04:24:04;43.10;;;29.87;;
4317;SDS011;2172;53.576;9.934;2024-03-02T04:26:31;44.10;;;29.93;;
4317;SDS011;2172;53.576;9.934;2024-03-02T04:28:59;45.13;;;30.13;;
4317;SDS011;2172;53.576;9.934;2024-03-02T04:31:27;40.47;;;28.30;;
4317;SDS011;2172;53.576;9.934;2024-03-02T04:33:54;42.60;;;27.77;;
4317;SDS011;2172;53.576;9.934;2024-03-02T04:36:22;40.57;;;27.90;;
4317;SDS011;2172;53.576;9.934;2024-03-02T04:38:49;44.00;;;30.33;;
4317;SDS011;2172;53.576;9.934;2024-03-02T04:41:18;41.27;;;29.13;;
4317;SDS011;2172;53.576;9.934;2024-03-02T04:43:46;42.60;;;28.87;;
4317;SDS011;2172;53.576;9.934;2024-03-02T04:46:13;42.60;;;29.30;;
4317;SDS011;2172;53.576;9.934;2024-03-02T04:48:41;44.10;;;28.90;;
4317;SDS011;2172;53.576;9.934;2024-03-02T04:51:09;48.90;;;31.07;;
4317;SDS011;2172;53.576;9.934;2024-03-02T04:53:36;41.57;;;30.47;;
4317;SDS011;2172;53.576;9.934;2024-03-02T04:56:04;43.60;;;28.50;;
4317;SDS011;2172;53.576;9.934;2024-03-02T04:59:06;43.33;;;29.17;;
4317;SDS011;2172;53.576;9.934;2024-03-02T05:01:34;44.67;;;29.13;;
4317;SDS011;2172;53.576;9.934;2024-03-02T05:04:01;46.50;;;29.20;;
4317;SDS011;2172;53.576;9.934;2024-03-02T05:06:29;44.57;;;29.63;;
4317;SDS011;2172;53.576;9.934;2024-03-02T05:08:57;45.17;;;28.93;;
4317;SDS011;2172;53.576;9.934;2024-03-02T05:11:24;44.33;;;27.20;;
4317;SDS011;2172;53.576;9.934;2024-03-02T05:14:10;43.17;;;29.37;;
4317;SDS011;2172;53.576;9.934;2024-03-02T05:16:38;45.60;;;28.43;;
4317;SDS011;2172;53.576;9.934;2024-03-02T05:19:06;40.77;;;27.07;;
4317;SDS011;2172;53.576;9.934;2024-03-02T05:21:34;40.17;;;29.10;;
4317;SDS011;2172;53.576;9.934;2024-03-02T05:24:01;43.93;;;28.63;;
4317;SDS011;2172;53.576;9.934;2024-03-02T05:26:29;47.80;;;30.63;;
4317;SDS011;2172;53.576;9.934;2024-03-02T05:28:56;41.87;;;27.20;;
4317;SDS011;2172;53.576;9.934;2024-03-02T05:31:25;41.43;;;28.40;;
4317;SDS011;2172;53.576;9.934;2024-03-02T05:33:52;43.90;;;28.93;;
4317;SDS011;2172;53.576;9.934;2024-03-02T05:36:20;41.10;;;27.53;;
4317;SDS011;2172;53.576;9.934;2024-03-02T05:38:47;41.10;;;27.13;;
4317;SDS011;2172;53.576;9.934;2024-03-02T05:41:15;43.40;;;28.50;;
4317;SDS011;2172;53.576;9.934;2024-03-02T05:43:42;40.63;;;26.37;;
4317;SDS011;2172;53.576;9.934;2024-03-02T05:46:10;41.00;;;27.43;;
4317;SDS011;2172;53.576;9.934;2024-03-02T05:48:39;39.00;;;26.80;;
4317;SDS011;2172;53.576;9.934;2024-03-02T05:51:06;39.70;;;26.37;;
4317;SDS011;2172;53.576;9.934;2024-03-02T05:53:34;40.40;;;26.70;;
4317;SDS011;2172;53.576;9.934;2024-03-02T05:56:03;36.90;;;26.50;;
4317;SDS011;2172;53.576;9.934;2024-03-02T05:58:31;38.90;;;26.00;;
4317;SDS011;2172;53.576;9.934;2024-03-02T06:01:11;36.87;;;26.13;;
4317;SDS011;2172;53.576;9.934;2024-03-02T06:03:40;42.20;;;26.53;;
4317;SDS011;2172;53.576;9.934;2024-03-02T06:06:07;40.53;;;27.37;;
4317;SDS011;2172;53.576;9.934;2024-03-02T06:08:35;43.17;;;27.73;;
4317;SDS011;2172;53.576;9.934;2024-03-02T06:11:02;42.43;;;27.77;;
4317;SDS011;2172;53.576;9.934;2024-03-02T06:13:30;34.00;;;25.27;;
4317;SDS011;2172;53.576;9.934;2024-03-02T06:15:57;39.07;;;27.57;;
4317;SDS011;2172;53.576;9.934;2024-03-02T06:18:25;37.40;;;26.47;;
4317;SDS011;2172;53.576;9.934;2024-03-02T06:20:54;41.03;;;29.10;;
4317;SDS011;2172;53.576;9.934;2024-03-02T06:23:21;43.03;;;27.60;;
4317;SDS011;2172;53.576;9.934;2024-03-02T06:25:50;38.13;;;25.80;;
4317;SDS011;2172;53.576;9.934;2024-03-02T06:28:17;38.17;;;25.97;;
4317;SDS011;2172;53.576;9.934;2024-03-02T06:30:45;39.77;;;26.60;;
4317;SDS011;2172;53.576;9.934;2024-03-02T06:33:13;40.80;;;26.47;;
4317;SDS011;2172;53.576;9.934;2024-03-02T06:35:40;39.77;;;25.90;;
4317;SDS011;2172;53.576;9.934;2024-03-02T06:38:09;38.60;;;26.73;;
4317;SDS011;2172;53.576;9.934;2024-03-02T06:40:37;42.20;;;25.97;;
4317;SDS011;2172;53.576;9.934;2024-03-02T06:43:04;40.33;;;26.33;;
4317;SDS011;2172;53.576;9.934;2024-03-02T06:45:32;38.03;;;25.93;;
4317;SDS011;2172;53.576;9.934;2024-03-02T06:48:00;39.90;;;27.70;;
4317;SDS011;2172;53.576;9.934;2024-03-02T06:50:27;39.97;;;27.23;;
4317;SDS011;2172;53.576;9.934;2024-03-02T06:52:55;39.97;;;26.40;;
4317;SDS011;2172;53.576;9.934;2024-03-02T06:55:24;40.23;;;26.00;;
4317;SDS011;2172;53.576;9.934;2024-03-02T06:57:51;39.20;;;27.10;;
4317;SDS011;2172;53.576;9.934;2024-03-02T07:00:19;37.47;;;26.17;;
4317;SDS011;2172;53.576;9.934;2024-03-02T07:02:46;43.43;;;27.20;;
4317;SDS011;2172;53.576;9.934;2024-03-02T07:05:14;44.17;;;27.20;;
4317;SDS011;2172;53.576;9.934;2024-03-02T07:07:42;40.13;;;27.00;;
4317;SDS011;2172;53.576;9.934;2024-03-02T07:10:09;39.90;;;27.67;;
4317;SDS011;2172;53.576;9.934;2024-03-02T07:12:38;38.00;;;25.70;;
4317;SDS011;2172;53.576;9.934;2024-03-02T07:15:06;41.97;;;28.37;;
4317;SDS011;2172;53.576;9.934;2024-03-02T07:17:50;36.80;;;23.63;;
4317;SDS011;2172;53.576;9.934;2024-03-02T07:20:17;39.70;;;26.90;;
4317;SDS011;2172;53.576;9.934;2024-03-02T07:22:45;34.87;;;25.47;;
4317;SDS011;2172;53.576;9.934;2024-03-02T07:25:12;40.03;;;25.93;;
4317;SDS011;2172;53.576;9.934;2024-03-02T07:27:41;39.27;;;25.80;;
4317;SDS011;2172;53.576;9.934;2024-03-02T07:30:09;38.03;;;25.77;;
4317;SDS011;2172;53.576;9.934;2024-03-02T07:32:41;39.10;;;26.33;;
4317;SDS011;2172;53.576;9.934;2024-03-02T07:35:11;35.97;;;26.00;;
4317;SDS011;2172;53.576;9.934;2024-03-02T07:37:39;37.97;;;26.20;;
4317;SDS011;2172;53.576;9.934;2024-03-02T07:40:08;36.30;;;26.80;;
4317;SDS011;2172;53.576;9.934;2024-03-02T07:42:37;39.00;;;26.33;;
4317;SDS011;2172;53.576;9.934;2024-03-02T07:45:07;38.97;;;26.03;;
4317;SDS011;2172;53.576;9.934;2024-03-02T07:47:35;38.73;;;26.53;;
4317;SDS011;2172;53.576;9.934;2024-03-02T07:50:02;38.63;;;25.37;;
4317;SDS011;2172;53.576;9.934;2024-03-02T07:52:31;38.90;;;26.40;;
4317;SDS011;2172;53.576;9.934;2024-03-02T07:54:59;37.10;;;25.53;;
4317;SDS011;2172;53.576;9.934;2024-03-02T07:57:27;40.40;;;26.60;;
4317;SDS011;2172;53.576;9.934;2024-03-02T07:59:54;38.00;;;26.20;;
4317;SDS011;2172;53.576;9.934;2024-03-02T08:02:23;35.40;;;25.47;;
4317;SDS011;2172;53.576;9.934;2024-03-02T08:04:51;41.60;;;25.43;;
4317;SDS011;2172;53.576;9.934;2024-03-02T08:07:18;35.47;;;24.67;;
4317;SDS011;2172;53.576;9.934;2024-03-02T08:09:46;34.70;;;26.00;;
4317;SDS011;2172;53.576;9.934;2024-03-02T08:12:13;36.77;;;25.90;;
4317;SDS011;2172;53.576;9.934;2024-03-02T08:14:41;37.83;;;25.37;;
4317;SDS011;2172;53.576;9.934;2024-03-02T08:17:08;37.07;;;25.83;;
4317;SDS011;2172;53.576;9.934;2024-03-02T08:19:38;39.40;;;25.53;;
4317;SDS011;2172;53.576;9.934;2024-03-02T08:22:05;37.37;;;25.17;;
4317;SDS011;2172;53.576;9.934;2024-03-02T08:24:33;35.00;;;25.37;;
4317;SDS011;2172;53.576;9.934;2024-03-02T08:27:01;34.87;;;24.13;;
4317;SDS011;2172;53.576;9.934;2024-03-02T08:29:29;34.40;;;25.03;;
4317;SDS011;2172;53.576;9.934;2024-03-02T08:31:56;34.33;;;24.77;;
4317;SDS011;2172;53.576;9.934;2024-03-02T08:34:24;36.60;;;25.13;;
4317;SDS011;2172;53.576;9.934;2024-03-02T08:36:53;36.83;;;24.97;;
4317;SDS011;2172;53.576;9.934;2024-03-02T08:39:20;36.37;;;26.63;;
4317;SDS011;2172;53.576;9.934;2024-03-02T08:41:48;37.47;;;25.23;;
4317;SDS011;2172;53.576;9.934;2024-03-02T08:44:15;33.20;;;24.50;;
4317;SDS011;2172;53.576;9.934;2024-03-02T08:46:43;35.07;;;24.37;;
4317;SDS011;2172;53.576;9.934;2024-03-02T08:49:11;40.13;;;26.03;;
4317;SDS011;2172;53.576;9.934;2024-03-02T08:51:38;33.37;;;24.27;;
4317;SDS011;2172;53.576;9.934;2024-03-02T08:54:07;34.83;;;24.33;;
4317;SDS011;2172;53.576;9.934;2024-03-02T08:56:34;33.87;;;23.63;;
4317;SDS011;2172;53.576;9.934;2024-03-02T08:59:02;35.80;;;24.90;;
4317;SDS011;2172;53.576;9.934;2024-03-02T09:01:30;33.97;;;23.87;;
4317;SDS011;2172;53.576;9.934;2024-03-02T09:03:57;32.40;;;24.33;;
4317;SDS011;2172;53.576;9.934;2024-03-02T09:06:25;33.90;;;23.83;;
4317;SDS011;2172;53.576;9.934;2024-03-02T09:08:52;35.20;;;24.47;;
4317;SDS011;2172;53.576;9.934;2024-03-02T09:11:21;36.30;;;23.83;;
4317;SDS011;2172;53.576;9.934;2024-03-02T09:13:49;34.33;;;24.23;;
4317;SDS011;2172;53.576;9.934;2024-03-02T09:16:16;36.23;;;23.93;;
4317;SDS011;2172;53.576;9.934;2024-03-02T09:18:44;35.53;;;23.13;;
4317;SDS011;2172;53.576;9.934;2024-03-02T09:21:12;34.33;;;23.33;;
4317;SDS011;2172;53.576;9.934;2024-03-02T09:23:40;30.53;;;23.13;;
4317;SDS011;2172;53.576;9.934;2024-03-02T09:26:09;32.33;;;22.57;;
4317;SDS011;2172;53.576;9.934;2024-03-02T09:28:38;27.43;;;21.20;;
4317;SDS011;2172;53.576;9.934;2024-03-02T09:31:07;30.97;;;22.97;;
4317;SDS011;2172;53.576;9.934;2024-03-02T09:33:34;31.13;;;22.97;;
4317;SDS011;2172;53.576;9.934;2024-03-02T09:36:02;28.00;;;19.87;;
4317;SDS011;2172;53.576;9.934;2024-03-02T09:38:31;35.13;;;22.10;;
4317;SDS011;2172;53.576;9.934;2024-03-02T09:40:59;32.63;;;21.53;;
4317;SDS011;2172;53.576;9.934;2024-03-02T09:43:26;31.00;;;21.67;;
4317;SDS011;2172;53.576;9.934;2024-03-02T09:45:55;29.37;;;21.57;;
4317;SDS011;2172;53.576;9.934;2024-03-02T09:48:23;28.10;;;21.10;;
4317;SDS011;2172;53.576;9.934;2024-03-02T09:50:50;30.53;;;21.30;;
4317;SDS011;2172;53.576;9.934;2024-03-02T09:53:18;32.30;;;21.33;;
4317;SDS011;2172;53.576;9.934;2024-03-02T09:55:45;30.00;;;22.10;;
4317;SDS011;2172;53.576;9.934;2024-03-02T09:58:13;28.23;;;20.80;;
4317;SDS011;2172;53.576;9.934;2024-03-02T10:00:41;28.67;;;20.90;;
4317;SDS011;2172;53.576;9.934;2024-03-02T10:03:13;30.97;;;21.97;;
4317;SDS011;2172;53.576;9.934;2024-03-02T10:05:41;29.90;;;21.13;;
4317;SDS011;2172;53.576;9.934;2024-03-02T10:08:09;27.80;;;20.97;;
4317;SDS011;2172;53.576;9.934;2024-03-02T10:10:37;25.33;;;20.60;;
4317;SDS011;2172;53.576;9.934;2024-03-02T10:13:07;29.03;;;21.10;;
4317;SDS011;2172;53.576;9.934;2024-03-02T10:15:35;24.97;;;19.10;;
4317;SDS011;2172;53.576;9.934;2024-03-02T10:18:07;23.63;;;18.97;;
4317;SDS011;2172;53.576;9.934;2024-03-02T10:20:38;26.10;;;18.60;;
4317;SDS011;2172;53.576;9.934;2024-03-02T10:23:12;24.40;;;18.63;;
4317;SDS011;2172;53.576;9.934;2024-03-02T10:25:40;24.23;;;18.53;;
4317;SDS011;2172;53.576;9.934;2024-03-02T10:28:08;28.03;;;19.37;;
4317;SDS011;2172;53.576;9.934;2024-03-02T10:30:36;25.10;;;19.03;;
4317;SDS011;2172;53.576;9.934;2024-03-02T10:33:03;23.33;;;18.50;;
4317;SDS011;2172;53.576;9.934;2024-03-02T10:35:33;24.57;;;17.37;;
4317;SDS011;2172;53.576;9.934;2024-03-02T10:38:04;24.73;;;18.30;;
4317;SDS011;2172;53.576;9.934;2024-03-02T10:40:32;21.33;;;16.07;;
4317;SDS011;2172;53.576;9.934;2024-03-02T10:43:00;20.90;;;16.67;;
4317;SDS011;2172;53.576;9.934;2024-03-02T10:45:31;20.90;;;16.30;;
4317;SDS011;2172;53.576;9.934;2024-03-02T10:47:58;23.77;;;17.50;;
4317;SDS011;2172;53.576;9.934;2024-03-02T10:50:27;25.33;;;15.73;;
4317;SDS011;2172;53.576;9.934;2024-03-02T10:52:55;23.27;;;18.10;;
4317;SDS011;2172;53.576;9.934;2024-03-02T10:55:23;20.30;;;15.60;;
4317;SDS011;2172;53.576;9.934;2024-03-02T10:57:51;20.30;;;16.20;;
4317;SDS011;2172;53.576;9.934;2024-03-02T11:00:21;20.13;;;15.20;;
4317;SDS011;2172;53.576;9.934;2024-03-02T11:02:55;22.70;;;17.27;;
4317;SDS011;2172;53.576;9.934;2024-03-02T11:05:26;21.30;;;16.60;;
4317;SDS011;2172;53.576;9.934;2024-03-02T11:07:57;23.17;;;16.27;;
4317;SDS011;2172;53.576;9.934;2024-03-02T11:10:31;17.30;;;14.37;;
4317;SDS011;2172;53.576;9.934;2024-03-02T11:13:02;18.47;;;14.10;;
4317;SDS011;2172;53.576;9.934;2024-03-02T11:15:32;24.00;;;15.20;;
4317;SDS011;2172;53.576;9.934;2024-03-02T11:18:03;22.40;;;14.53;;
4317;SDS011;2172;53.576;9.934;2024-03-02T11:20:34;21.13;;;16.10;;
4317;SDS011;2172;53.576;9.934;2024-03-02T11:23:04;18.10;;;15.13;;
4317;SDS011;2172;53.576;9.934;2024-03-02T11:25:34;17.70;;;13.27;;
4317;SDS011;2172;53.576;9.934;2024-03-02T11:28:02;20.20;;;13.73;;
4317;SDS011;2172;53.576;9.934;2024-03-02T11:33:24;20.40;;;14.57;;
4317;SDS011;2172;53.576;9.934;2024-03-02T11:35:56;18.27;;;13.60;;
4317;SDS011;2172;53.576;9.934;2024-03-02T11:38:32;19.20;;;15.10;;
4317;SDS011;2172;53.576;9.934;2024-03-02T11:41:02;17.00;;;12.50;;
4317;SDS011;2172;53.576;9.934;2024-03-02T11:43:36;15.50;;;12.70;;
4317;SDS011;2172;53.576;9.934;2024-03-02T11:46:05;17.43;;;13.50;;
4317;SDS011;2172;53.576;9.934;2024-03-02T11:48:34;16.57;;;13.27;;
4317;SDS011;2172;53.576;9.934;2024-03-02T11:51:03;16.30;;;12.57;;
4317;SDS011;2172;53.576;9.934;2024-03-02T11:53:30;17.43;;;12.60;;
4317;SDS011;2172;53.576;9.934;2024-03-02T11:55:58;14.20;;;11.87;;
4317;SDS011;2172;53.576;9.934;2024-03-02T11:58:28;16.07;;;12.70;;
4317;SDS011;2172;53.576;9.934;2024-03-02T12:00:56;15.07;;;11.80;;
4317;SDS011;2172;53.576;9.934;2024-03-02T12:03:24;13.57;;;12.00;;
4317;SDS011;2172;53.576;9.934;2024-03-02T12:05:52;15.20;;;11.33;;
4317;SDS011;2172;53.576;9.934;2024-03-02T12:08:21;14.87;;;12.00;;
4317;SDS011;2172;53.576;9.934;2024-03-02T12:10:58;16.20;;;11.50;;
4317;SDS011;2172;53.576;9.934;2024-03-02T12:13:28;14.33;;;11.47;;
4317;SDS011;2172;53.576;9.934;2024-03-02T12:15:56;14.57;;;11.70;;
4317;SDS011;2172;53.576;9.934;2024-03-02T12:18:23;18.03;;;11.60;;
4317;SDS011;2172;53.576;9.934;2024-03-02T12:20:51;14.30;;;11.00;;
4317;SDS011;2172;53.576;9.934;2024-03-02T12:23:22;14.37;;;10.33;;
4317;SDS011;2172;53.576;9.934;2024-03-02T12:25:49;14.53;;;10.17;;
4317;SDS011;2172;53.576;9.934;2024-03-02T12:28:17;13.30;;;10.20;;
4317;SDS011;2172;53.576;9.934;2024-03-02T12:30:47;15.10;;;11.97;;
4317;SDS011;2172;53.576;9.934;2024-03-02T12:33:16;15.20;;;11.07;;
4317;SDS011;2172;53.576;9.934;2024-03-02T12:35:43;13.90;;;10.77;;
4317;SDS011;2172;53.576;9.934;2024-03-02T12:38:12;13.13;;;10.20;;
4317;SDS011;2172;53.576;9.934;2024-03-02T12:40:39;13.93;;;10.87;;
4317;SDS011;2172;53.576;9.934;2024-03-02T12:43:07;12.87;;;10.53;;
4317;SDS011;2172;53.576;9.934;2024-03-02T12:45:34;15.97;;;11.47;;
4317;SDS011;2172;53.576;9.934;2024-03-02T12:48:04;12.47;;;10.07;;
4317;SDS011;2172;53.576;9.934;2024-03-02T12:50:32;11.77;;;10.50;;
4317;SDS011;2172;53.576;9.934;2024-03-02T12:53:00;12.27;;;9.67;;
4317;SDS011;2172;53.576;9.934;2024-03-02T12:55:28;11.87;;;10.03;;
4317;SDS011;2172;53.576;9.934;2024-03-02T12:57:55;12.17;;;9.50;;
4317;SDS011;2172;53.576;9.934;2024-03-02T13:00:24;13.33;;;9.70;;
4317;SDS011;2172;53.576;9.934;2024-03-02T13:02:52;12.93;;;8.43;;
4317;SDS011;2172;53.576;9.934;2024-03-02T13:05:21;12.23;;;8.63;;
4317;SDS011;2172;53.576;9.934;2024-03-02T13:07:51;10.70;;;8.57;;
4317;SDS011;2172;53.576;9.934;2024-03-02T13:10:19;12.10;;;9.10;;
4317;SDS011;2172;53.576;9.934;2024-03-02T13:12:47;13.23;;;8.50;;
4317;SDS011;2172;53.576;9.934;2024-03-02T13:15:14;12.60;;;10.13;;
4317;SDS011;2172;53.576;9.934;2024-03-02T13:17:42;11.53;;;9.43;;
4317;SDS011;2172;53.576;9.934;2024-03-02T13:20:11;11.83;;;9.13;;
4317;SDS011;2172;53.576;9.934;2024-03-02T13:22:40;11.07;;;9.03;;
4317;SDS011;2172;53.576;9.934;2024-03-02T13:25:08;14.27;;;10.37;;
4317;SDS011;2172;53.576;9.934;2024-03-02T13:27:36;13.70;;;9.93;;
4317;SDS011;2172;53.576;9.934;2024-03-02T13:30:04;12.40;;;10.10;;
4317;SDS011;2172;53.576;9.934;2024-03-02T13:32:34;11.70;;;10.50;;
4317;SDS011;2172;53.576;9.934;2024-03-02T13:35:02;13.23;;;10.60;;
4317;SDS011;2172;53.576;9.934;2024-03-02T13:37:30;15.80;;;10.60;;
4317;SDS011;2172;53.576;9.934;2024-03-02T13:39:58;14.53;;;11.00;;
4317;SDS011;2172;53.576;9.934;2024-03-02T13:42:26;14.60;;;9.90;;
4317;SDS011;2172;53.576;9.934;2024-03-02T13:44:53;11.40;;;10.20;;
4317;SDS011;2172;53.576;9.934;2024-03-02T13:47:21;14.93;;;10.27;;
4317;SDS011;2172;53.576;9.934;2024-03-02T13:49:49;11.37;;;9.90;;
4317;SDS011;2172;53.576;9.934;2024-03-02T13:52:16;15.37;;;10.87;;
4317;SDS011;2172;53.576;9.934;2024-03-02T13:54:44;12.40;;;9.90;;
4317;SDS011;2172;53.576;9.934;2024-03-02T13:57:13;15.70;;;10.80;;
4317;SDS011;2172;53.576;9.934;2024-03-02T13:59:42;13.73;;;10.43;;
4317;SDS011;2172;53.576;9.934;2024-03-02T14:02:10;15.23;;;11.37;;
4317;SDS011;2172;53.576;9.934;2024-03-02T14:04:38;14.90;;;10.90;;
4317;SDS011;2172;53.576;9.934;2024-03-02T14:07:06;15.30;;;12.20;;
4317;SDS011;2172;53.576;9.934;2024-03-02T14:09:34;18.00;;;11.60;;
4317;SDS011;2172;53.576;9.934;2024-03-02T14:12:02;13.63;;;10.73;;
4317;SDS011;2172;53.576;9.934;2024-03-02T14:14:31;13.43;;;11.20;;
4317;SDS011;2172;53.576;9.934;2024-03-02T14:16:59;13.30;;;10.50;;
4317;SDS011;2172;53.576;9.934;2024-03-02T14:19:29;12.57;;;10.30;;
4317;SDS011;2172;53.576;9.934;2024-03-02T14:21:57;15.87;;;10.70;;
4317;SDS011;2172;53.576;9.934;2024-03-02T14:24:24;13.37;;;10.80;;
4317;SDS011;2172;53.576;9.934;2024-03-02T14:26:53;14.10;;;10.73;;
4317;SDS011;2172;53.576;9.934;2024-03-02T14:29:22;16.50;;;12.93;;
4317;SDS011;2172;53.576;9.934;2024-03-02T14:31:51;16.90;;;13.00;;
4317;SDS011;2172;53.576;9.934;2024-03-02T14:34:18;14.20;;;11.90;;
4317;SDS011;2172;53.576;9.934;2024-03-02T14:36:47;19.80;;;14.40;;
4317;SDS011;2172;53.576;9.934;2024-03-02T14:39:14;17.37;;;13.37;;
4317;SDS011;2172;53.576;9.934;2024-03-02T14:41:44;16.40;;;12.83;;
4317;SDS011;2172;53.576;9.934;2024-03-02T14:44:11;17.47;;;13.27;;
4317;SDS011;2172;53.576;9.934;2024-03-02T14:46:40;18.63;;;13.10;;
4317;SDS011;2172;53.576;9.934;2024-03-02T14:49:09;14.37;;;12.57;;
4317;SDS011;2172;53.576;9.934;2024-03-02T14:51:37;17.80;;;12.30;;
4317;SDS011;2172;53.576;9.934;2024-03-02T14:54:04;17.70;;;13.37;;
4317;SDS011;2172;53.576;9.934;2024-03-02T14:56:32;16.10;;;12.60;;
4317;SDS011;2172;53.576;9.934;2024-03-02T14:58:59;16.33;;;12.57;;
4317;SDS011;2172;53.576;9.934;2024-03-02T15:01:27;18.37;;;11.97;;